Latest Weather Observations for Warburto Point

IDS60801

Issued at 11:01 am CST Tuesday 16 August 2022 (issued every 10 minutes, with the page automatically refreshed every 10 minutes)

About weather observations | Map of weather stations | Latest weather observations for SA | Other Formats
Station Details ID: 022053 Name: WARBURTO POINT Lat: -34.00 Lon: 137.53 Height: 1.0 m
Data from the previous 72 hours. | See also: Recent months at Warburto Point
Date/Time
CST
Temp
°C
App
Temp
°C
Dew
Point
°C
Rel
Hum
%
Delta-T
°C
Wind Press
QNH
hPa
Press
MSL
hPa
Rain since
9am
mm
Dir  Spd
km/h
Gust
km/h
Spd
kts
Gust
kts
16/10:30am - - - - - SSE 9 13 5 7 - - -
16/10:00am - - - - - S 7 11 4 6 - - -
16/09:30am - - - - - CALM 0 0 0 0 - - -
16/09:00am - - - - - SE 7 11 4 6 - - -
16/08:30am - - - - - E 7 9 4 5 - - -
16/08:00am - - - - - E 9 13 5 7 - - -
16/07:30am - - - - - S 9 11 5 6 - - -
16/07:00am - - - - - S 7 7 4 4 - - -
16/06:30am - - - - - S 9 9 5 5 - - -
16/06:00am - - - - - S 7 9 4 5 - - -
16/05:30am - - - - - S 11 15 6 8 - - -
16/05:00am - - - - - SSW 15 20 8 11 - - -
16/04:30am - - - - - SSE 9 13 5 7 - - -
16/04:00am - - - - - SE 6 7 3 4 - - -
16/03:30am - - - - - CALM 0 0 0 0 - - -
16/03:00am - - - - - SE 4 7 2 4 - - -
16/02:30am - - - - - SE 11 11 6 6 - - -
16/02:00am - - - - - S 11 13 6 7 - - -
16/01:30am - - - - - S 11 11 6 6 - - -
16/01:00am - - - - - S 9 11 5 6 - - -
16/12:30am - - - - - SW 19 24 10 13 - - -
16/12:00am - - - - - SSW 20 28 11 15 - - -
 
Date/Time
CST
Temp
°C
App
Temp
°C
Dew
Point
°C
Rel
Hum
%
Delta-T
°C
Wind Press
QNH
hPa
Press
MSL
hPa
Rain since
9am
mm
Dir  Spd
km/h
Gust
km/h
Spd
kts
Gust
kts
15/11:30pm - - - - - SSW 24 32 13 17 - - -
15/11:00pm - - - - - SW 22 28 12 15 - - -
15/10:30pm - - - - - SW 24 33 13 18 - - -
15/10:00pm - - - - - WSW 22 28 12 15 - - -
15/09:30pm - - - - - SW 24 33 13 18 - - -
15/09:00pm - - - - - SW 28 35 15 19 - - -
15/08:30pm - - - - - SW 26 35 14 19 - - -
15/08:00pm - - - - - SW 32 37 17 20 - - -
15/07:30pm - - - - - SW 32 39 17 21 - - -
15/07:00pm - - - - - SW 28 35 15 19 - - -
15/06:30pm - - - - - SW 20 28 11 15 - - -
15/06:00pm - - - - - WSW 19 26 10 14 - - -
15/05:30pm - - - - - SW 24 33 13 18 - - -
15/05:00pm - - - - - SW 32 48 17 26 - - -
15/04:51pm - - - - - WSW 30 48 16 26 - - -
15/04:30pm - - - - - WSW 24 32 13 17 - - -
15/04:00pm - - - - - SSW 28 35 15 19 - - -
15/03:30pm - - - - - SSW 28 35 15 19 - - -
15/03:00pm - - - - - SW 19 26 10 14 - - -
15/02:30pm - - - - - SW 20 24 11 13 - - -
15/02:00pm - - - - - SW 17 22 9 12 - - -
15/01:30pm - - - - - SW 17 22 9 12 - - -
15/01:00pm - - - - - SW 17 22 9 12 - - -
15/12:30pm - - - - - WSW 17 22 9 12 - - -
15/12:00pm - - - - - W 17 22 9 12 - - -
15/11:30am - - - - - W 19 24 10 13 - - -
15/11:00am - - - - - W 19 22 10 12 - - -
15/10:30am - - - - - W 20 26 11 14 - - -
15/10:00am - - - - - W 19 26 10 14 - - -
15/09:30am - - - - - W 20 26 11 14 - - -
15/09:00am - - - - - W 17 20 9 11 - - -
15/08:30am - - - - - WSW 11 15 6 8 - - -
15/08:00am - - - - - WSW 11 15 6 8 - - -
15/07:30am - - - - - W 13 17 7 9 - - -
15/07:00am - - - - - WNW 13 19 7 10 - - -
15/06:30am - - - - - NW 17 20 9 11 - - -
15/06:00am - - - - - NNW 19 24 10 13 - - -
15/05:30am - - - - - NNW 15 19 8 10 - - -
15/05:00am - - - - - NNW 15 19 8 10 - - -
15/04:30am - - - - - NNW 17 22 9 12 - - -
15/04:00am - - - - - NW 20 24 11 13 - - -
15/03:30am - - - - - NW 15 20 8 11 - - -
15/03:00am - - - - - NW 13 17 7 9 - - -
15/02:30am - - - - - NW 13 17 7 9 - - -
15/02:00am - - - - - NNW 13 15 7 8 - - -
15/01:30am - - - - - N 15 19 8 10 - - -
15/01:00am - - - - - N 17 20 9 11 - - -
15/12:30am - - - - - NNW 15 19 8 10 - - -
15/12:00am - - - - - NW 13 15 7 8 - - -
 
Date/Time
CST
Temp
°C
App
Temp
°C
Dew
Point
°C
Rel
Hum
%
Delta-T
°C
Wind Press
QNH
hPa
Press
MSL
hPa
Rain since
9am
mm
Dir  Spd
km/h
Gust
km/h
Spd
kts
Gust
kts
14/11:30pm - - - - - NW 15 19 8 10 - - -
14/11:00pm - - - - - NW 15 19 8 10 - - -
14/10:30pm - - - - - NW 15 19 8 10 - - -
14/10:00pm - - - - - NW 22 26 12 14 - - -
14/09:30pm - - - - - NW 17 20 9 11 - - -
14/09:00pm - - - - - NW 15 17 8 9 - - -
14/08:30pm - - - - - NNW 13 15 7 8 - - -
14/08:00pm - - - - - NW 11 15 6 8 - - -
14/07:30pm - - - - - CALM 0 0 0 0 - - -
14/07:00pm - - - - - CALM 0 0 0 0 - - -
14/06:30pm - - - - - SSE 7 7 4 4 - - -
14/06:00pm - - - - - SSE 7 9 4 5 - - -
14/05:30pm - - - - - SSW 7 9 4 5 - - -
14/05:00pm - - - - - SSW 11 13 6 7 - - -
14/04:30pm - - - - - SW 13 17 7 9 - - -
14/04:00pm - - - - - W 17 19 9 10 - - -
14/03:30pm - - - - - W 13 17 7 9 - - -
14/03:00pm - - - - - W 15 17 8 9 - - -
14/02:30pm - - - - - W 15 19 8 10 - - -
14/02:00pm - - - - - W 15 19 8 10 - - -
14/01:30pm - - - - - W 17 26 9 14 - - -
14/01:00pm - - - - - W 20 26 11 14 - - -
14/12:30pm - - - - - W 20 26 11 14 - - -
14/12:00pm - - - - - W 26 33 14 18 - - -
14/11:30am - - - - - W 22 30 12 16 - - -
14/11:00am - - - - - W 22 30 12 16 - - -
14/10:30am - - - - - W 20 28 11 15 - - -
14/10:00am - - - - - W 19 26 10 14 - - -
14/09:30am - - - - - W 19 22 10 12 - - -
14/09:00am - - - - - W 17 22 9 12 - - -
14/08:30am - - - - - W 22 28 12 15 - - -
14/08:00am - - - - - WSW 20 28 11 15 - - -
14/07:30am - - - - - W 24 30 13 16 - - -
14/07:00am - - - - - W 22 30 12 16 - - -
14/06:30am - - - - - W 22 30 12 16 - - -
14/06:00am - - - - - WSW 26 35 14 19 - - -
14/05:30am - - - - - W 32 37 17 20 - - -
14/05:00am - - - - - W 28 35 15 19 - - -
14/04:30am - - - - - W 24 32 13 17 - - -
14/04:00am - - - - - WSW 19 26 10 14 - - -
14/03:30am - - - - - WSW 19 26 10 14 - - -
14/03:00am - - - - - WSW 19 26 10 14 - - -
14/02:30am - - - - - WSW 20 28 11 15 - - -
14/02:00am - - - - - WSW 22 30 12 16 - - -
14/01:30am - - - - - WSW 24 32 13 17 - - -
14/01:00am - - - - - W 26 33 14 18 - - -
14/12:30am - - - - - W 26 33 14 18 - - -
14/12:00am - - - - - W 28 33 15 18 - - -
 
Date/Time
CST
Temp
°C
App
Temp
°C
Dew
Point
°C
Rel
Hum
%
Delta-T
°C
Wind Press
QNH
hPa
Press
MSL
hPa
Rain since
9am
mm
Dir  Spd
km/h
Gust
km/h
Spd
kts
Gust
kts
13/11:30pm - - - - - W 28 35 15 19 - - -
13/11:00pm - - - - - W 28 33 15 18 - - -
13/10:30pm - - - - - W 24 30 13 16 - - -
13/10:00pm - - - - - W 26 37 14 20 - - -
13/09:30pm - - - - - W 19 26 10 14 - - -
13/09:00pm - - - - - W 20 26 11 14 - - -
13/08:30pm - - - - - WSW 22 30 12 16 - - -
13/08:00pm - - - - - WSW 22 28 12 15 - - -
13/07:30pm - - - - - WSW 20 28 11 15 - - -
13/07:00pm - - - - - W 24 30 13 16 - - -
13/06:30pm - - - - - W 24 32 13 17 - - -
13/06:00pm - - - - - W 26 32 14 17 - - -
13/05:30pm - - - - - W 26 35 14 19 - - -
13/05:00pm - - - - - WSW 28 33 15 18 - - -
13/04:30pm - - - - - WSW 30 41 16 22 - - -
13/04:00pm - - - - - W 32 39 17 21 - - -
13/03:30pm - - - - - W 32 39 17 21 - - -
13/03:00pm - - - - - W 35 46 19 25 - - -
13/02:30pm - - - - - W 32 41 17 22 - - -
13/02:00pm - - - - - W 35 48 19 26 - - -
13/01:30pm - - - - - W 35 46 19 25 - - -
13/01:00pm - - - - - WSW 35 48 19 26 - - -
13/12:30pm - - - - - WSW 35 50 19 27 - - -
13/12:00pm - - - - - WSW 35 52 19 28 - - -
13/11:30am - - - - - W 35 46 19 25 - - -

Other formats

Comma delimited format used in spreadsheet applications
http://www.bom.gov.au/fwo/IDS60801/IDS60801.94666.axf

JavaScript Object Notation format (JSON) in row-major order
http://www.bom.gov.au/fwo/IDS60801/IDS60801.94666.json

Data quality

Most of these data are generated automatically and are frequently updated. Quality checks on data are not normally performed. It is possible for incorrect values to appear. Refer to information at About Latest Weather Observations and please check the disclaimer before using these data.